Time;durP1;ratioP1;P1;durP2;ratioP2;P2;SDS_P1;SDS_P2;PMS_P1;PMS_P2;Temp;Humidity;BMP_temperature;BMP_pressure;BME280_temperature;BME280_humidity;BME280_pressure;Samples;Min_cycle;Max_cycle;Signal;HPM_P1;HPM_P2
2021/12/09 00:00:12;;;;;;;363.80;105.15;;;;;;;2.07;82.27;99394.09;344257;28;1803;-71
2021/12/09 00:00:29;;;;;;;362.70;103.70;;;;;;;2.09;82.18;99398.38;342290;28;1497;-71
2021/12/09 00:00:54;;;;;;;357.17;101.38;;;;;;;2.08;82.30;99401.84;343377;28;1849;-71
2021/12/09 00:01:06;;;;;;;360.25;100.68;;;;;;;2.06;82.44;99395.84;341241;28;2030;-71
2021/12/09 00:01:23;;;;;;;360.73;101.10;;;;;;;2.08;81.91;99399.25;344000;28;1336;-70
2021/12/09 00:01:37;;;;;;;361.50;104.38;;;;;;;2.06;82.49;99403.56;340737;28;1930;-71
2021/12/09 00:01:49;;;;;;;365.73;106.55;;;;;;;2.06;81.85;99394.97;340442;28;1416;-71
2021/12/09 00:01:59;;;;;;;363.74;105.66;;;;;;;2.06;82.22;99400.13;343251;28;1014;-70
2021/12/09 00:02:12;;;;;;;361.60;104.77;;;;;;;2.05;82.29;99399.28;343748;28;2222;-70
2021/12/09 00:02:24;;;;;;;356.25;102.32;;;;;;;2.05;82.64;99399.28;343767;28;1925;-70
2021/12/09 00:02:34;;;;;;;359.42;103.28;;;;;;;2.07;82.47;99401.84;345182;28;1742;-70
2021/12/09 00:02:45;;;;;;;363.80;105.97;;;;;;;2.07;82.14;99404.44;342234;28;1962;-70
2021/12/09 00:02:56;;;;;;;365.40;107.47;;;;;;;2.05;82.53;99399.28;342818;28;1850;-71
2021/12/09 00:03:07;;;;;;;364.67;107.18;;;;;;;2.05;82.38;99399.28;342360;28;2550;-71
2021/12/09 00:03:18;;;;;;;363.20;104.72;;;;;;;2.06;81.99;99403.56;342448;28;1876;-71
2021/12/09 00:03:29;;;;;;;363.60;103.93;;;;;;;2.06;82.62;99401.00;343700;28;1769;-71
2021/12/09 00:03:40;;;;;;;364.35;104.30;;;;;;;2.04;81.97;99397.56;344189;28;1596;-71
2021/12/09 00:03:53;;;;;;;365.00;104.72;;;;;;;2.02;82.30;99401.03;343867;28;2316;-70
2021/12/09 00:04:06;;;;;;;365.42;105.22;;;;;;;2.02;82.38;99399.31;344946;28;1489;-70
2021/12/09 00:04:24;;;;;;;364.42;105.97;;;;;;;2.00;82.65;99401.91;343648;28;1443;-70
2021/12/09 00:04:35;;;;;;;364.02;105.35;;;;;;;1.99;82.54;99394.19;341174;28;1683;-70
2021/12/09 00:04:46;;;;;;;362.88;103.50;;;;;;;1.99;82.39;99399.34;342123;28;1795;-71
2021/12/09 00:04:58;;;;;;;363.52;104.45;;;;;;;2.00;82.49;99401.06;342456;28;1389;-71
2021/12/09 00:05:09;;;;;;;360.33;103.53;;;;;;;2.02;82.63;99403.63;342537;28;2076;-71
2021/12/09 00:05:20;;;;;;;359.60;103.07;;;;;;;1.99;82.61;99400.19;342320;28;1340;-71
2021/12/09 00:05:31;;;;;;;360.47;103.03;;;;;;;2.00;82.64;99401.06;342218;28;1430;-71
2021/12/09 00:05:46;;;;;;;362.15;104.43;;;;;;;1.99;82.49;99402.78;342640;28;875;-71
2021/12/09 00:05:57;;;;;;;363.38;105.35;;;;;;;1.97;82.45;99399.34;343108;28;1471;-71
2021/12/09 00:06:09;;;;;;;362.60;104.68;;;;;;;1.99;83.24;99400.19;342293;28;1406;-70
2021/12/09 00:06:24;;;;;;;359.83;103.57;;;;;;;1.99;83.14;99402.78;344824;28;848;-71
2021/12/09 00:06:35;;;;;;;359.95;103.43;;;;;;;2.01;82.35;99407.94;340975;28;990;-72
2021/12/09 00:06:46;;;;;;;364.52;106.90;;;;;;;2.03;82.18;99406.19;340485;28;1629;-71
2021/12/09 00:06:58;;;;;;;367.38;108.78;;;;;;;2.03;82.49;99406.19;341528;28;2005;-72
2021/12/09 00:07:08;;;;;;;364.77;107.00;;;;;;;2.05;82.47;99408.75;342553;28;1819;-71
2021/12/09 00:07:19;;;;;;;364.48;106.05;;;;;;;2.07;81.95;99412.19;342460;28;864;-72
2021/12/09 00:07:29;;;;;;;361.60;105.23;;;;;;;2.06;82.19;99401.00;341772;28;1299;-70
2021/12/09 00:07:42;;;;;;;361.87;105.20;;;;;;;2.05;82.53;99414.78;343526;28;1475;-71
2021/12/09 00:07:53;;;;;;;360.77;103.75;;;;;;;2.04;81.89;99407.91;340752;28;2381;-71
2021/12/09 00:08:04;;;;;;;363.38;103.55;;;;;;;2.02;82.58;99414.78;342127;28;1647;-72
2021/12/09 00:08:15;;;;;;;364.33;104.00;;;;;;;2.03;82.47;99405.34;343499;28;1283;-72
2021/12/09 00:08:27;;;;;;;364.58;105.43;;;;;;;2.00;82.24;99411.38;342740;28;1494;-72
2021/12/09 00:08:38;;;;;;;364.05;106.75;;;;;;;2.01;82.69;99410.50;343905;28;1685;-74
2021/12/09 00:08:48;;;;;;;362.17;105.20;;;;;;;2.01;82.37;99407.94;345335;28;841;-72
2021/12/09 00:09:01;;;;;;;362.83;105.97;;;;;;;2.00;82.92;99408.78;343294;28;1512;-72
2021/12/09 00:09:17;;;;;;;363.23;106.03;;;;;;;1.99;82.53;99409.66;342998;28;1983;-71
2021/12/09 00:09:28;;;;;;;360.98;102.15;;;;;;;2.00;82.80;99406.22;344729;28;1340;-71
2021/12/09 00:09:38;;;;;;;358.33;100.18;;;;;;;1.99;82.24;99409.66;346334;28;1920;-71
2021/12/09 00:09:50;;;;;;;356.20;101.03;;;;;;;1.98;82.63;99413.13;342535;28;1931;-72
2021/12/09 00:10:02;;;;;;;354.95;101.63;;;;;;;2.00;82.38;99408.78;343416;28;1750;-71
2021/12/09 00:10:13;;;;;;;354.50;99.20;;;;;;;1.99;82.16;99412.25;344200;28;1926;-72
2021/12/09 00:10:24;;;;;;;354.97;99.03;;;;;;;1.99;82.99;99410.53;344222;28;1898;-71
2021/12/09 00:10:35;;;;;;;355.48;98.00;;;;;;;1.97;82.51;99414.84;342278;28;1310;-71
2021/12/09 00:10:45;;;;;;;358.63;99.75;;;;;;;1.96;83.06;99410.53;343610;28;1297;-71
2021/12/09 00:10:57;;;;;;;358.70;99.47;;;;;;;1.95;83.04;99410.56;343358;28;1451;-71
2021/12/09 00:11:08;;;;;;;359.95;99.32;;;;;;;1.96;82.96;99415.72;343183;28;1317;-72
2021/12/09 00:11:19;;;;;;;356.63;99.70;;;;;;;1.95;82.80;99411.41;342270;28;1295;-71
2021/12/09 00:11:30;;;;;;;357.45;101.03;;;;;;;1.95;82.48;99416.56;340890;28;1479;-71
2021/12/09 00:11:45;;;;;;;360.60;103.93;;;;;;;1.96;82.62;99414.84;342419;28;1680;-71
2021/12/09 00:11:55;;;;;;;362.45;105.50;;;;;;;1.97;82.92;99411.41;342510;28;1442;-72
2021/12/09 00:12:07;;;;;;;361.43;105.23;;;;;;;1.96;82.11;99409.69;341939;28;1842;-71
2021/12/09 00:12:18;;;;;;;360.13;103.88;;;;;;;1.96;82.91;99414.84;342292;28;1065;-72
2021/12/09 00:12:28;;;;;;;358.40;103.07;;;;;;;1.96;82.69;99417.44;344483;28;1493;-71
2021/12/09 00:12:38;;;;;;;359.47;104.77;;;;;;;1.96;82.60;99409.69;344704;28;1294;-71
2021/12/09 00:12:49;;;;;;;361.52;106.13;;;;;;;1.95;82.71;99410.56;344993;28;1420;-71
2021/12/09 00:12:59;;;;;;;365.43;107.60;;;;;;;1.95;83.25;99413.16;344748;28;1400;-71
2021/12/09 00:13:10;;;;;;;366.70;107.22;;;;;;;1.94;82.29;99406.28;344246;28;2018;-71
2021/12/09 00:13:20;;;;;;;365.03;105.03;;;;;;;1.94;82.62;99414.88;344883;28;894;-71
2021/12/09 00:13:31;;;;;;;361.10;103.28;;;;;;;1.94;83.17;99411.44;343612;28;1285;-71
2021/12/09 00:13:41;;;;;;;359.58;102.18;;;;;;;1.96;83.17;99414.84;343922;28;1559;-71
2021/12/09 00:13:52;;;;;;;355.30;101.27;;;;;;;1.95;82.69;99407.97;344707;28;1287;-72
2021/12/09 00:14:02;;;;;;;353.27;99.55;;;;;;;1.96;82.67;99409.69;343388;28;1259;-71
2021/12/09 00:14:16;;;;;;;354.90;100.33;;;;;;;1.92;82.47;99406.28;345731;28;1587;-71
2021/12/09 00:14:28;;;;;;;359.08;101.47;;;;;;;1.92;82.97;99408.88;345326;28;1489;-71
2021/12/09 00:14:38;;;;;;;360.48;101.68;;;;;;;1.93;82.20;99410.56;342615;28;1973;-71
2021/12/09 00:14:49;;;;;;;357.90;101.18;;;;;;;1.94;82.01;99412.28;342458;28;1266;-71
2021/12/09 00:14:59;;;;;;;357.60;101.80;;;;;;;1.93;82.74;99405.41;343217;28;1426;-71
2021/12/09 00:15:09;;;;;;;357.33;102.13;;;;;;;1.91;82.74;99403.72;342945;28;1759;-71
2021/12/09 00:15:20;;;;;;;357.63;101.43;;;;;;;1.90;82.71;99407.16;343795;28;930;-71
2021/12/09 00:15:30;;;;;;;357.63;99.90;;;;;;;1.92;83.15;99415.75;341225;28;1598;-71
2021/12/09 00:15:41;;;;;;;360.20;99.18;;;;;;;1.92;83.16;99408.88;345795;28;2109;-71
2021/12/09 00:15:51;;;;;;;359.43;99.83;;;;;;;1.90;83.08;99408.03;345280;28;982;-71
2021/12/09 00:16:02;;;;;;;359.02;101.30;;;;;;;1.93;82.91;99407.13;343496;28;1891;-71
2021/12/09 00:16:12;;;;;;;358.30;103.07;;;;;;;1.94;82.68;99411.44;343644;28;2102;-71
2021/12/09 00:16:23;;;;;;;359.23;102.73;;;;;;;1.93;82.43;99410.56;342784;28;1781;-71
2021/12/09 00:16:33;;;;;;;361.15;101.85;;;;;;;1.95;82.92;99413.16;345185;28;876;-71
2021/12/09 00:16:43;;;;;;;362.70;101.13;;;;;;;1.90;82.80;99407.16;343712;28;1944;-71
2021/12/09 00:16:57;;;;;;;362.60;101.30;;;;;;;1.88;82.98;99411.47;343565;28;1832;-71
2021/12/09 00:17:08;;;;;;;363.23;102.03;;;;;;;1.88;82.63;99409.75;343394;28;1920;-71
2021/12/09 00:17:18;;;;;;;363.63;102.78;;;;;;;1.89;82.95;99408.03;342570;28;916;-71
2021/12/09 00:17:28;;;;;;;361.23;102.63;;;;;;;1.89;83.00;99418.34;343435;28;1313;-71
2021/12/09 00:17:39;;;;;;;360.92;103.07;;;;;;;1.86;83.04;99410.66;345344;28;2054;-71
2021/12/09 00:17:49;;;;;;;360.20;103.17;;;;;;;1.85;83.46;99412.38;343792;28;965;-71
2021/12/09 00:18:00;;;;;;;361.48;103.53;;;;;;;1.84;82.79;99410.66;344949;28;2189;-71
2021/12/09 00:18:10;;;;;;;361.90;103.30;;;;;;;1.83;82.68;99408.09;343681;28;2058;-71
2021/12/09 00:18:21;;;;;;;363.92;104.05;;;;;;;1.83;82.60;99418.41;342553;28;2131;-71
2021/12/09 00:18:31;;;;;;;363.77;103.93;;;;;;;1.81;83.47;99412.41;345123;28;1231;-71
2021/12/09 00:18:43;;;;;;;362.40;102.30;;;;;;;1.82;82.74;99411.53;344186;28;2199;-71
2021/12/09 00:18:53;;;;;;;363.25;103.75;;;;;;;1.81;83.41;99415.00;343110;28;1936;-71
2021/12/09 00:19:04;;;;;;;363.60;105.07;;;;;;;1.80;83.12;99413.28;343817;28;1051;-71
2021/12/09 00:19:14;;;;;;;364.17;105.55;;;;;;;1.78;83.03;99409.84;346267;28;2154;-71
2021/12/09 00:19:24;;;;;;;362.50;103.87;;;;;;;1.76;82.96;99404.72;344462;28;2094;-71
2021/12/09 00:19:35;;;;;;;363.75;102.60;;;;;;;1.76;83.69;99403.84;343764;28;2070;-71
2021/12/09 00:19:46;;;;;;;362.17;102.72;;;;;;;1.76;83.87;99417.59;345013;28;1657;-71
2021/12/09 00:19:56;;;;;;;362.07;102.47;;;;;;;1.76;83.60;99407.28;345858;28;2084;-71
2021/12/09 00:20:07;;;;;;;360.58;102.85;;;;;;;1.75;83.54;99409.88;346560;28;1786;-71
2021/12/09 00:20:18;;;;;;;361.43;103.97;;;;;;;1.75;83.57;99407.31;343079;28;1331;-71
2021/12/09 00:20:28;;;;;;;362.65;105.75;;;;;;;1.74;83.84;99403.88;341625;28;1891;-71
2021/12/09 00:20:39;;;;;;;360.33;104.87;;;;;;;1.74;83.65;99408.16;345241;28;1973;-71
2021/12/09 00:20:49;;;;;;;362.80;104.43;;;;;;;1.76;83.42;99412.44;346498;28;1039;-73
2021/12/09 00:21:00;;;;;;;365.13;104.03;;;;;;;1.77;83.58;99411.56;344737;28;2309;-72
2021/12/09 00:21:10;;;;;;;366.33;105.53;;;;;;;1.77;83.67;99408.13;342316;28;1507;-72
2021/12/09 00:21:21;;;;;;;364.80;105.70;;;;;;;1.76;84.32;99404.72;343476;28;1451;-72
2021/12/09 00:21:31;;;;;;;364.13;105.25;;;;;;;1.76;84.22;99407.28;344783;28;1922;-72
2021/12/09 00:21:42;;;;;;;364.30;104.57;;;;;;;1.79;83.86;99411.56;344512;28;1810;-72
2021/12/09 00:21:52;;;;;;;364.42;104.55;;;;;;;1.77;83.69;99408.13;344792;28;2232;-72
2021/12/09 00:22:04;;;;;;;364.33;105.80;;;;;;;1.78;83.67;99410.72;343964;28;1279;-72
2021/12/09 00:22:14;;;;;;;364.10;104.97;;;;;;;1.76;83.92;99409.00;344992;28;2287;-72
2021/12/09 00:22:27;;;;;;;364.55;103.50;;;;;;;1.77;83.82;99408.13;344837;28;1710;-72
2021/12/09 00:22:37;;;;;;;364.32;102.92;;;;;;;1.78;83.93;99409.84;344606;28;1895;-72
2021/12/09 00:22:48;;;;;;;364.30;102.77;;;;;;;1.76;83.68;99414.16;345204;28;808;-72
2021/12/09 00:22:58;;;;;;;363.30;103.37;;;;;;;1.75;83.74;99409.88;343751;28;1758;-72
2021/12/09 00:23:08;;;;;;;364.98;106.93;;;;;;;1.76;83.95;99411.59;343758;28;2051;-72
2021/12/09 00:23:19;;;;;;;367.00;108.77;;;;;;;1.77;83.84;99408.13;345165;28;926;-72
2021/12/09 00:23:29;;;;;;;366.50;108.60;;;;;;;1.75;84.04;99410.72;345017;28;1495;-72
2021/12/09 00:23:40;;;;;;;366.13;105.33;;;;;;;1.77;83.90;99418.47;346350;28;1316;-72
2021/12/09 00:23:50;;;;;;;364.35;104.78;;;;;;;1.75;84.39;99410.72;345238;28;1010;-72
2021/12/09 00:24:01;;;;;;;364.40;103.73;;;;;;;1.76;83.69;99409.00;344987;28;1789;-72
2021/12/09 00:24:11;;;;;;;365.13;105.88;;;;;;;1.76;83.28;99412.44;344532;28;1654;-72
2021/12/09 00:24:21;;;;;;;365.57;104.53;;;;;;;1.73;84.56;99412.50;342519;28;1190;-72
2021/12/09 00:24:32;;;;;;;361.48;102.05;;;;;;;1.76;84.21;99416.75;346372;28;2054;-72
2021/12/09 00:24:42;;;;;;;362.07;100.13;;;;;;;1.77;84.75;99413.31;344998;28;1843;-72
2021/12/09 00:24:53;;;;;;;363.00;99.30;;;;;;;1.79;84.00;99416.72;346294;28;1582;-72
2021/12/09 00:25:03;;;;;;;365.57;100.57;;;;;;;1.79;83.66;99414.16;345163;28;1313;-72
2021/12/09 00:25:14;;;;;;;361.65;100.10;;;;;;;1.81;84.15;99412.41;346028;28;1852;-72
2021/12/09 00:25:24;;;;;;;359.60;101.30;;;;;;;1.81;83.95;99415.00;342893;28;2266;-72
2021/12/09 00:25:35;;;;;;;360.47;100.53;;;;;;;1.77;84.19;99408.13;344019;28;1092;-72
2021/12/09 00:25:45;;;;;;;361.80;100.57;;;;;;;1.79;83.97;99414.16;343762;28;2258;-72
2021/12/09 00:25:56;;;;;;;360.17;98.50;;;;;;;1.80;84.39;99413.28;344084;28;2755;-72
2021/12/09 00:26:06;;;;;;;358.80;98.85;;;;;;;1.80;84.16;99408.13;342819;28;1337;-72
2021/12/09 00:26:17;;;;;;;356.30;97.93;;;;;;;1.79;84.13;99421.88;346342;28;2142;-72
2021/12/09 00:26:27;;;;;;;358.48;100.60;;;;;;;1.78;84.48;99415.88;346985;28;1648;-72
2021/12/09 00:26:43;;;;;;;358.37;100.83;;;;;;;1.78;84.71;99415.00;343814;28;1521;-71
2021/12/09 00:26:54;;;;;;;359.00;99.43;;;;;;;1.79;83.88;99416.72;344981;28;2090;-71
2021/12/09 00:27:05;;;;;;;361.73;99.57;;;;;;;1.78;83.88;99410.72;342566;28;1067;-71
2021/12/09 00:27:15;;;;;;;362.60;100.20;;;;;;;1.79;84.20;99412.41;346151;28;1710;-71
2021/12/09 00:27:25;;;;;;;361.03;100.40;;;;;;;1.80;84.36;99413.28;344168;28;2396;-71
2021/12/09 00:27:36;;;;;;;358.13;98.95;;;;;;;1.80;84.36;99418.44;345092;28;1415;-71
2021/12/09 00:27:46;;;;;;;358.37;99.83;;;;;;;1.79;84.89;99414.16;345013;28;1750;-71
2021/12/09 00:27:56;;;;;;;359.63;100.55;;;;;;;1.79;84.30;99411.56;344902;28;2125;-71
2021/12/09 00:28:07;;;;;;;358.67;100.73;;;;;;;1.80;84.88;99418.44;344102;28;1456;-71
2021/12/09 00:28:17;;;;;;;360.15;100.35;;;;;;;1.77;84.42;99415.88;343763;28;1254;-71
2021/12/09 00:28:28;;;;;;;361.03;100.60;;;;;;;1.80;84.72;99414.13;345303;28;2045;-71
2021/12/09 00:28:38;;;;;;;363.70;101.25;;;;;;;1.81;84.38;99415.00;345109;28;2050;-71
2021/12/09 00:28:48;;;;;;;361.33;101.50;;;;;;;1.80;84.36;99415.84;344385;28;1143;-71
2021/12/09 00:28:59;;;;;;;360.85;102.28;;;;;;;1.80;84.44;99415.84;345836;28;1639;-71
2021/12/09 00:29:09;;;;;;;361.17;104.00;;;;;;;1.78;84.10;99415.88;346412;28;1086;-71
2021/12/09 00:29:20;;;;;;;362.73;103.75;;;;;;;1.82;84.50;99421.84;346531;28;1214;-71
2021/12/09 00:29:30;;;;;;;363.00;103.67;;;;;;;1.81;84.69;99420.16;346302;28;1575;-71
2021/12/09 00:29:41;;;;;;;361.90;103.10;;;;;;;1.80;84.18;99414.13;347800;28;2149;-71
2021/12/09 00:29:51;;;;;;;362.27;104.77;;;;;;;1.80;84.27;99423.59;343794;28;1400;-71
2021/12/09 00:30:05;;;;;;;363.17;104.75;;;;;;;1.81;84.28;99425.31;346116;28;2217;-71
2021/12/09 00:30:16;;;;;;;362.90;105.75;;;;;;;1.79;84.42;99416.72;346311;28;2155;-72
2021/12/09 00:30:28;;;;;;;361.70;103.37;;;;;;;1.79;84.12;99416.72;345755;28;1776;-72
2021/12/09 00:30:39;;;;;;;361.52;100.85;;;;;;;1.78;84.22;99413.28;342427;28;2094;-72
2021/12/09 00:30:49;;;;;;;360.17;100.30;;;;;;;1.79;83.94;99416.72;342368;28;1234;-72
2021/12/09 00:30:59;;;;;;;358.10;100.83;;;;;;;1.81;83.87;99420.16;345769;28;2296;-72
2021/12/09 00:31:10;;;;;;;358.90;101.77;;;;;;;1.79;84.10;99416.72;344317;28;1654;-72
2021/12/09 00:31:20;;;;;;;359.65;100.82;;;;;;;1.79;84.17;99417.56;346601;28;926;-72
2021/12/09 00:31:31;;;;;;;360.23;99.53;;;;;;;1.78;84.57;99418.44;345033;28;1691;-72
2021/12/09 00:31:41;;;;;;;362.88;99.68;;;;;;;1.81;84.32;99420.16;345043;28;2068;-71
2021/12/09 00:31:52;;;;;;;363.98;100.45;;;;;;;1.81;84.41;99420.16;346545;28;875;-71
2021/12/09 00:32:02;;;;;;;364.00;102.73;;;;;;;1.81;84.45;99420.16;345456;28;2205;-71
2021/12/09 00:32:13;;;;;;;361.77;101.75;;;;;;;1.81;84.20;99420.16;345257;28;884;-71
2021/12/09 00:32:23;;;;;;;362.57;102.57;;;;;;;1.79;84.05;99411.56;346344;28;2139;-71
2021/12/09 00:32:34;;;;;;;364.52;103.93;;;;;;;1.79;83.67;99430.47;343778;28;994;-71
2021/12/09 00:32:44;;;;;;;363.93;105.23;;;;;;;1.79;84.36;99420.16;344231;28;2044;-71
2021/12/09 00:32:54;;;;;;;363.92;104.95;;;;;;;1.79;84.17;99419.31;342560;28;1892;-71
2021/12/09 00:33:05;;;;;;;361.37;102.30;;;;;;;1.77;84.34;99418.47;342907;28;1640;-71
2021/12/09 00:33:16;;;;;;;362.38;101.22;;;;;;;1.76;84.15;99412.44;344811;28;1857;-71
2021/12/09 00:33:27;;;;;;;359.88;101.72;;;;;;;1.80;84.56;99428.75;344982;28;1979;-71
2021/12/09 00:33:42;;;;;;;363.02;103.40;;;;;;;1.79;84.19;99424.47;345120;28;906;-71
2021/12/09 00:33:55;;;;;;;364.40;103.40;;;;;;;1.76;84.16;99420.19;342520;28;2077;-71
2021/12/09 00:34:05;;;;;;;362.65;104.60;;;;;;;1.75;83.77;99417.63;345098;28;1024;-71
2021/12/09 00:34:19;;;;;;;363.13;104.60;;;;;;;1.74;84.44;99419.34;344946;28;1860;-71
2021/12/09 00:34:35;;;;;;;364.38;104.30;;;;;;;1.75;83.95;99426.22;344573;28;2387;-71
2021/12/09 00:34:48;;;;;;;365.90;104.78;;;;;;;1.75;84.31;99420.19;344410;28;2062;-71
2021/12/09 00:34:58;;;;;;;364.63;104.15;;;;;;;1.77;83.73;99416.75;344538;28;2142;-71
2021/12/09 00:35:10;;;;;;;362.33;102.73;;;;;;;1.78;84.27;99425.31;344931;28;2039;-71
2021/12/09 00:35:26;;;;;;;364.00;104.00;;;;;;;1.79;84.15;99427.03;345262;28;769;-71
2021/12/09 00:35:57;;;;;;;365.10;103.90;;;;;;;1.80;84.05;99428.75;343853;28;929;-71
2021/12/09 00:36:08;;;;;;;360.58;100.95;;;;;;;1.80;84.21;99423.59;345066;28;1902;-71
2021/12/09 00:36:27;;;;;;;359.55;101.13;;;;;;;1.78;83.76;99430.50;345216;28;917;-71
2021/12/09 00:36:41;;;;;;;361.02;103.78;;;;;;;1.80;83.93;99431.34;342424;28;1783;-71
2021/12/09 00:36:59;;;;;;;362.58;104.70;;;;;;;1.79;84.07;99417.56;344927;28;1459;-71
2021/12/09 00:37:25;;;;;;;364.05;104.55;;;;;;;1.76;83.86;99430.50;343733;28;2030;-71
2021/12/09 00:37:50;;;;;;;363.58;102.78;;;;;;;1.77;83.73;99433.94;343805;28;1495;-71
2021/12/09 00:38:07;;;;;;;359.63;97.95;;;;;;;1.74;84.45;99428.81;342366;28;2056;-71
2021/12/09 00:38:39;;;;;;;360.20;99.80;;;;;;;1.71;84.41;99428.84;343769;28;1654;-71
2021/12/09 00:38:49;;;;;;;359.52;101.57;;;;;;;1.70;84.58;99428.00;342364;28;983;-71
2021/12/09 00:39:00;;;;;;;361.75;103.68;;;;;;;1.72;83.85;99425.41;345697;28;1773;-71
2021/12/09 00:39:11;;;;;;;362.47;104.17;;;;;;;1.71;84.23;99428.84;346009;28;2105;-71
2021/12/09 00:39:21;;;;;;;361.45;103.05;;;;;;;1.71;84.59;99428.84;346573;28;950;-71
2021/12/09 00:39:32;;;;;;;357.83;99.80;;;;;;;1.71;84.59;99428.84;346314;28;2154;-71
2021/12/09 00:39:44;;;;;;;359.30;100.33;;;;;;;1.68;84.82;99429.75;345767;28;1632;-71
2021/12/09 00:39:54;;;;;;;362.00;101.43;;;;;;;1.67;84.48;99425.44;345151;28;1991;-71
2021/12/09 00:40:05;;;;;;;364.58;102.85;;;;;;;1.66;84.50;99427.16;346456;28;1316;-71
2021/12/09 00:40:16;;;;;;;364.33;102.13;;;;;;;1.67;84.45;99418.56;342507;28;2023;-71
2021/12/09 00:40:26;;;;;;;362.98;102.50;;;;;;;1.69;84.25;99433.19;343628;28;2076;-71
2021/12/09 00:40:37;;;;;;;363.17;102.13;;;;;;;1.67;84.80;99421.16;343766;28;1342;-71
2021/12/09 00:40:48;;;;;;;365.15;104.45;;;;;;;1.69;85.28;99426.28;344966;28;2220;-71
2021/12/09 00:40:58;;;;;;;365.58;106.10;;;;;;;1.70;84.36;99428.00;343571;28;1852;-71
2021/12/09 00:41:11;;;;;;;364.50;106.38;;;;;;;1.70;84.63;99432.31;343996;28;1170;-71
2021/12/09 00:41:21;;;;;;;360.80;103.47;;;;;;;1.71;84.60;99428.84;347900;28;1282;-71
2021/12/09 00:41:31;;;;;;;361.47;104.63;;;;;;;1.70;84.68;99427.16;345320;28;2179;-71
2021/12/09 00:41:42;;;;;;;361.38;104.28;;;;;;;1.68;83.90;99429.75;344818;28;1910;-71
2021/12/09 00:41:52;;;;;;;361.90;104.93;;;;;;;1.69;84.10;99422.84;347843;28;1175;-71
2021/12/09 00:42:03;;;;;;;362.05;104.43;;;;;;;1.69;84.47;99425.44;344625;28;2154;-71
2021/12/09 00:42:13;;;;;;;364.40;105.30;;;;;;;1.69;84.74;99428.88;344386;28;1851;-71
2021/12/09 00:42:24;;;;;;;363.40;104.93;;;;;;;1.71;83.70;99428.84;345114;28;1624;-71
2021/12/09 00:42:34;;;;;;;360.58;103.57;;;;;;;1.71;84.64;99423.69;346585;28;947;-71
2021/12/09 00:42:45;;;;;;;357.27;102.03;;;;;;;1.69;84.25;99425.44;343725;28;1686;-71
2021/12/09 00:42:55;;;;;;;361.00;103.32;;;;;;;1.71;83.72;99428.84;343608;28;1458;-71
2021/12/09 00:43:06;;;;;;;364.10;104.37;;;;;;;1.70;83.62;99429.72;341790;28;1423;-71
2021/12/09 00:43:17;;;;;;;362.85;103.50;;;;;;;1.69;84.51;99425.44;342276;28;1972;-71
2021/12/09 00:43:28;;;;;;;362.67;102.60;;;;;;;1.70;84.10;99427.16;342401;28;1542;-71
2021/12/09 00:43:38;;;;;;;360.55;100.03;;;;;;;1.71;84.21;99428.84;343652;28;2018;-71
2021/12/09 00:43:49;;;;;;;359.30;99.35;;;;;;;1.71;83.69;99428.84;343741;28;991;-71
2021/12/09 00:43:59;;;;;;;360.03;99.60;;;;;;;1.72;84.13;99430.56;344469;28;2063;-71
2021/12/09 00:44:10;;;;;;;359.67;100.43;;;;;;;1.72;83.57;99430.56;346324;28;2101;-71
2021/12/09 00:44:20;;;;;;;360.23;102.23;;;;;;;1.73;84.02;99427.13;345050;28;1219;-71
2021/12/09 00:44:31;;;;;;;359.35;102.13;;;;;;;1.73;83.73;99433.13;346372;28;2164;-71
2021/12/09 00:44:41;;;;;;;360.87;103.23;;;;;;;1.72;83.68;99435.72;346319;28;2019;-71
2021/12/09 00:44:52;;;;;;;361.23;102.68;;;;;;;1.70;83.70;99432.31;345111;28;945;-71
2021/12/09 00:45:03;;;;;;;360.95;102.95;;;;;;;1.72;83.92;99435.72;345578;28;2251;-71
2021/12/09 00:45:13;;;;;;;359.60;102.45;;;;;;;1.69;83.99;99435.75;344446;28;1506;-71
2021/12/09 00:45:24;;;;;;;358.60;102.43;;;;;;;1.69;83.61;99438.34;344960;28;2110;-71
2021/12/09 00:45:34;;;;;;;357.35;101.07;;;;;;;1.69;83.44;99440.91;345072;28;1359;-71
2021/12/09 00:45:45;;;;;;;358.73;101.57;;;;;;;1.67;83.74;99439.19;343697;28;1962;-71
2021/12/09 00:45:57;;;;;;;359.80;101.97;;;;;;;1.69;83.49;99443.50;343520;28;2363;-71
2021/12/09 00:46:07;;;;;;;358.40;100.03;;;;;;;1.69;83.31;99433.19;343926;28;1362;-71
2021/12/09 00:46:18;;;;;;;357.05;98.93;;;;;;;1.69;83.68;99438.34;343686;28;1347;-71
2021/12/09 00:46:28;;;;;;;357.47;99.97;;;;;;;1.69;83.75;99433.19;347041;28;2089;-71
2021/12/09 00:46:39;;;;;;;357.55;101.90;;;;;;;1.69;83.15;99446.06;344969;28;2021;-71
2021/12/09 00:46:49;;;;;;;357.33;103.23;;;;;;;1.67;83.15;99444.34;345049;28;1488;-71
2021/12/09 00:46:59;;;;;;;357.90;102.40;;;;;;;1.66;83.59;99441.78;345838;28;1908;-71
2021/12/09 00:47:10;;;;;;;359.73;103.80;;;;;;;1.65;83.45;99440.94;343923;28;2058;-71
2021/12/09 00:47:21;;;;;;;364.05;103.40;;;;;;;1.64;83.28;99441.81;345106;28;1327;-71
2021/12/09 00:47:31;;;;;;;363.25;102.95;;;;;;;1.64;83.28;99443.53;347812;28;948;-71
2021/12/09 00:47:42;;;;;;;362.00;100.87;;;;;;;1.60;83.24;99434.94;349170;28;2045;-71
2021/12/09 00:47:52;;;;;;;363.48;102.50;;;;;;;1.62;83.95;99451.28;346482;28;934;-71
2021/12/09 00:48:03;;;;;;;364.93;105.33;;;;;;;1.62;83.60;99440.94;345041;28;1848;-71
2021/12/09 00:48:13;;;;;;;363.25;106.72;;;;;;;1.59;83.64;99440.13;345577;28;2023;-71
2021/12/09 00:48:25;;;;;;;360.47;106.10;;;;;;;1.59;84.57;99434.97;343340;28;2008;-71
2021/12/09 00:48:35;;;;;;;360.10;104.38;;;;;;;1.55;83.41;99434.13;343817;28;1295;-71
2021/12/09 00:48:46;;;;;;;361.60;103.60;;;;;;;1.58;83.60;99439.25;345201;28;1987;-71
2021/12/09 00:48:56;;;;;;;362.80;103.60;;;;;;;1.57;83.67;99436.69;344142;28;2061;-71
2021/12/09 00:49:07;;;;;;;366.27;106.57;;;;;;;1.57;83.48;99437.56;342349;28;1321;-71
2021/12/09 00:49:17;;;;;;;363.70;104.07;;;;;;;1.57;84.11;99437.56;342523;28;2195;-71
2021/12/09 00:49:30;;;;;;;362.10;103.00;;;;;;;1.55;84.11;99431.56;342470;28;1586;-71
2021/12/09 00:49:40;;;;;;;359.33;101.68;;;;;;;1.56;83.69;99434.97;345835;28;1583;-71
2021/12/09 00:49:53;;;;;;;360.43;101.67;;;;;;;1.56;83.96;99437.56;347963;28;1336;-71
2021/12/09 00:50:04;;;;;;;364.02;102.38;;;;;;;1.56;84.17;99437.56;345051;28;1657;-71
2021/12/09 00:50:15;;;;;;;364.40;103.38;;;;;;;1.56;84.61;99433.25;345021;28;2027;-71
2021/12/09 00:50:25;;;;;;;362.63;103.68;;;;;;;1.59;83.85;99428.09;343738;28;1951;-71
2021/12/09 00:50:35;;;;;;;360.50;102.37;;;;;;;1.59;84.14;99435.81;342470;28;1317;-71
2021/12/09 00:50:46;;;;;;;359.17;101.50;;;;;;;1.59;84.37;99435.81;345736;28;2192;-71
2021/12/09 00:50:56;;;;;;;359.47;101.17;;;;;;;1.58;84.11;99434.09;345425;28;2917;-71
2021/12/09 00:51:07;;;;;;;361.52;101.72;;;;;;;1.59;84.09;99433.25;343818;28;991;-71
2021/12/09 00:51:17;;;;;;;363.03;103.00;;;;;;;1.59;84.57;99435.81;343787;28;1119;-71
2021/12/09 00:51:28;;;;;;;363.83;103.15;;;;;;;1.60;84.55;99431.50;342361;28;1801;-71
2021/12/09 00:51:38;;;;;;;362.57;104.07;;;;;;;1.58;84.44;99431.53;342287;28;1385;-71
2021/12/09 00:51:49;;;;;;;363.25;103.20;;;;;;;1.58;84.83;99439.25;342556;28;864;-71
2021/12/09 00:52:00;;;;;;;361.88;102.32;;;;;;;1.62;84.75;99440.94;343285;28;2089;-71
2021/12/09 00:52:10;;;;;;;359.20;99.82;;;;;;;1.64;84.38;99433.22;343597;28;1935;-71
2021/12/09 00:52:24;;;;;;;360.37;100.67;;;;;;;1.63;84.09;99432.34;343872;28;1023;-71
2021/12/09 00:52:35;;;;;;;362.95;101.47;;;;;;;1.62;84.07;99433.22;343672;28;1581;-71
2021/12/09 00:52:46;;;;;;;361.55;101.22;;;;;;;1.63;84.01;99437.50;347206;28;2270;-72
2021/12/09 00:52:56;;;;;;;358.75;99.10;;;;;;;1.62;84.51;99438.38;344910;28;2053;-72
2021/12/09 00:53:07;;;;;;;362.87;100.13;;;;;;;1.63;84.14;99437.50;344135;28;1211;-72
2021/12/09 00:53:17;;;;;;;360.98;100.13;;;;;;;1.62;84.53;99433.22;346029;28;1799;-72